Time;durP1;ratioP1;P1;durP2;ratioP2;P2;SDS_P1;SDS_P2;PMS_P1;PMS_P2;Temp;Humidity;BMP_temperature;BMP_pressure;BME280_temperature;BME280_humidity;BME280_pressure;Samples;Min_cycle;Max_cycle;Signal;HPM_P1;HPM_P2
2023/10/09 00:03:10;;;;;;;2.47;1.15;;;;;;;13.00;100.00;101128.63;5228350;28;20020;-72
2023/10/09 00:05:46;;;;;;;3.83;0.90;;;;;;;12.91;100.00;101121.94;5228988;28;20094;-72
2023/10/09 00:08:19;;;;;;;5.32;1.08;;;;;;;13.09;100.00;101113.41;5226312;28;20027;-72
2023/10/09 00:10:53;;;;;;;6.28;1.98;;;;;;;13.08;100.00;101105.63;5224686;28;20021;-71
2023/10/09 00:13:30;;;;;;;3.03;0.65;;;;;;;13.08;100.00;101100.38;5224147;28;20037;-72
2023/10/09 00:16:22;;;;;;;4.93;1.00;;;;;;;12.86;100.00;101093.31;5218427;28;20402;-72
2023/10/09 00:18:53;;;;;;;2.67;1.00;;;;;;;12.89;100.00;101094.06;5205097;28;20036;-71
2023/10/09 00:21:27;;;;;;;3.33;1.08;;;;;;;12.84;100.00;101089.88;5203127;28;20017;-71
2023/10/09 00:23:59;;;;;;;3.17;1.00;;;;;;;13.00;100.00;101086.66;5221081;28;20029;-71
2023/10/09 00:26:30;;;;;;;2.08;0.70;;;;;;;12.90;100.00;101085.28;5229523;28;20375;-71
2023/10/09 00:29:05;;;;;;;3.17;0.90;;;;;;;12.89;100.00;101071.28;5218594;28;20498;-72
2023/10/09 00:31:36;;;;;;;2.08;0.80;;;;;;;12.96;100.00;101060.63;5200596;28;20020;-71
2023/10/09 00:34:07;;;;;;;3.97;1.08;;;;;;;12.99;100.00;101059.56;5220446;28;20040;-72
2023/10/09 00:36:50;;;;;;;2.17;0.95;;;;;;;12.98;100.00;101064.03;5200756;28;20509;-72
2023/10/09 00:39:42;;;;;;;4.90;0.90;;;;;;;12.84;100.00;101058.41;5223109;28;20509;-72
2023/10/09 00:42:12;;;;;;;3.15;0.88;;;;;;;12.96;100.00;101043.09;5217820;28;20035;-72
2023/10/09 00:44:43;;;;;;;4.97;0.90;;;;;;;12.90;100.00;101035.41;5219393;28;21073;-72
2023/10/09 00:47:22;;;;;;;1.75;0.95;;;;;;;12.97;100.00;101017.72;5219200;28;20029;-72
2023/10/09 00:50:01;;;;;;;3.05;1.10;;;;;;;12.88;100.00;101002.28;5204669;28;20029;-72
2023/10/09 00:52:44;;;;;;;4.05;1.33;;;;;;;12.71;100.00;100995.06;5217709;28;20017;-72
2023/10/09 00:55:21;;;;;;;4.38;1.17;;;;;;;12.86;100.00;100984.00;5209809;28;20401;-72
2023/10/09 00:57:57;;;;;;;3.80;0.95;;;;;;;12.86;100.00;100981.38;5192926;28;20386;-72
2023/10/09 01:01:04;;;;;;;3.42;1.10;;;;;;;12.95;100.00;100982.81;5215771;28;20048;-71
2023/10/09 01:03:25;;;;;;;;;;;;;;;12.95;100.00;100988.91;5223601;28;20048;-72
2023/10/09 01:06:22;;;;;;;3.38;1.10;;;;;;;12.90;100.00;100980.31;5217658;28;19956;-72
2023/10/09 01:09:13;;;;;;;2.65;0.88;;;;;;;12.96;100.00;100964.38;5224243;28;20036;-72
2023/10/09 01:12:03;;;;;;;2.25;1.02;;;;;;;12.93;99.56;100967.97;5224683;28;20109;-72
2023/10/09 01:14:36;;;;;;;3.97;1.20;;;;;;;12.85;100.00;100956.03;5212870;28;20135;-72
2023/10/09 01:17:10;;;;;;;3.92;0.90;;;;;;;12.90;98.88;100954.09;5217164;28;20033;-74
2023/10/09 01:19:43;;;;;;;2.88;1.08;;;;;;;12.93;98.48;100955.75;5228186;28;20114;-72
2023/10/09 01:22:14;;;;;;;4.13;1.20;;;;;;;12.83;98.72;100957.84;5198383;28;20112;-72
2023/10/09 01:24:48;;;;;;;3.28;0.95;;;;;;;12.82;97.76;100955.31;5217749;28;20559;-72
2023/10/09 01:27:22;;;;;;;4.57;1.00;;;;;;;12.81;96.34;100954.44;5221789;28;20025;-72
2023/10/09 01:29:53;;;;;;;2.90;1.10;;;;;;;13.00;95.85;100958.09;5218608;28;20581;-71
2023/10/09 01:32:26;;;;;;;4.30;1.20;;;;;;;12.99;96.40;100966.88;5229079;28;20021;-71
2023/10/09 01:34:57;;;;;;;2.15;1.00;;;;;;;13.02;96.78;100953.63;5219069;28;20094;-72
2023/10/09 01:37:30;;;;;;;5.95;1.00;;;;;;;13.02;96.79;100964.13;5218330;28;20033;-72
2023/10/09 01:40:51;;;;;;;4.78;1.20;;;;;;;13.00;97.18;100971.19;5199616;28;20057;-72
2023/10/09 01:42:51;;;;;;;2.17;0.95;;;;;;;13.03;97.45;100965.84;5210249;28;20473;-72
2023/10/09 01:47:55;;;;;;;4.82;1.25;;;;;;;12.98;97.55;100962.53;5225315;28;20040;-72
2023/10/09 01:50:27;;;;;;;3.47;1.30;;;;;;;13.13;95.31;100968.06;5212790;28;20084;-72
2023/10/09 01:53:00;;;;;;;4.15;1.20;;;;;;;12.96;95.26;100977.50;5214219;28;20406;-72
2023/10/09 01:55:38;;;;;;;3.63;1.00;;;;;;;13.08;96.44;100971.78;5203573;28;20021;-72
2023/10/09 01:58:16;;;;;;;2.65;0.90;;;;;;;12.98;99.81;100974.81;5217551;28;20457;-74
2023/10/09 02:00:56;;;;;;;2.30;0.95;;;;;;;12.95;99.61;100969.69;5199803;28;20040;-72
2023/10/09 02:03:29;;;;;;;3.72;1.05;;;;;;;12.94;100.00;100966.22;5217546;28;20025;-73
2023/10/09 02:05:59;;;;;;;3.15;0.80;;;;;;;12.88;100.00;100963.78;5222411;28;20033;-72
2023/10/09 02:08:34;;;;;;;4.90;0.98;;;;;;;12.91;100.00;100959.25;5204383;28;20028;-72
2023/10/09 02:11:07;;;;;;;4.15;1.30;;;;;;;12.91;100.00;100963.66;5222439;28;20114;-74
2023/10/09 02:13:41;;;;;;;3.88;1.10;;;;;;;12.87;100.00;100954.22;5222368;28;20033;-72
2023/10/09 02:16:15;;;;;;;2.92;1.00;;;;;;;12.98;100.00;100953.84;5222300;28;20226;-75
2023/10/09 02:18:58;;;;;;;6.53;1.10;;;;;;;12.79;100.00;100937.91;5204677;28;20100;-72
2023/10/09 02:21:33;;;;;;;3.35;0.93;;;;;;;12.86;100.00;100934.16;5219670;28;20031;-72
2023/10/09 02:24:09;;;;;;;2.80;1.00;;;;;;;12.93;100.00;100917.28;5222930;28;20480;-72
2023/10/09 02:27:06;;;;;;;2.38;0.93;;;;;;;12.98;100.00;100920.56;5222342;28;20072;-72
2023/10/09 02:29:35;;;;;;;3.70;1.13;;;;;;;12.89;100.00;100916.50;5221375;28;20490;-73
2023/10/09 02:32:14;;;;;;;3.30;1.17;;;;;;;12.89;100.00;100902.53;5204521;28;20078;-72
2023/10/09 02:34:46;;;;;;;4.65;1.02;;;;;;;12.80;100.00;100892.41;5222393;28;20040;-72
2023/10/09 02:37:23;;;;;;;3.58;1.10;;;;;;;12.90;100.00;100891.13;5222818;28;20020;-72
2023/10/09 02:39:53;;;;;;;2.10;0.80;;;;;;;12.90;100.00;100885.88;5221578;28;20025;-73
2023/10/09 02:42:23;;;;;;;2.80;1.00;;;;;;;12.87;100.00;100886.00;5203698;28;20079;-72
2023/10/09 02:44:55;;;;;;;2.55;1.00;;;;;;;12.89;100.00;100889.44;5204932;28;20036;-72
2023/10/09 02:47:31;;;;;;;3.95;1.25;;;;;;;12.85;100.00;100872.06;5222634;28;20031;-70
2023/10/09 02:50:07;;;;;;;4.32;1.10;;;;;;;12.95;100.00;100862.13;5218857;28;20025;-72
2023/10/09 02:52:40;;;;;;;3.03;1.00;;;;;;;12.80;100.00;100857.47;5203766;28;20033;-74
2023/10/09 02:55:23;;;;;;;3.08;1.00;;;;;;;12.66;100.00;100850.13;5224702;28;20409;-72
2023/10/09 02:58:07;;;;;;;3.03;0.93;;;;;;;12.80;100.00;100863.53;5221074;28;20032;-73
2023/10/09 03:00:37;;;;;;;3.67;1.10;;;;;;;12.86;100.00;100884.31;5220151;28;20338;-75
2023/10/09 03:03:07;;;;;;;5.55;1.70;;;;;;;13.00;100.00;100864.50;5223739;28;20315;-74
2023/10/09 03:05:42;;;;;;;5.55;1.17;;;;;;;12.98;100.00;100856.75;5221745;28;20033;-74
2023/10/09 03:08:12;;;;;;;2.83;0.85;;;;;;;12.93;100.00;100851.69;5201915;28;20259;-72
2023/10/09 03:10:43;;;;;;;3.67;1.00;;;;;;;12.84;100.00;100854.63;5224295;28;21432;-72
2023/10/09 03:13:19;;;;;;;3.28;0.90;;;;;;;12.83;100.00;100844.22;5221801;28;20064;-72
2023/10/09 03:15:51;;;;;;;4.13;0.98;;;;;;;12.65;100.00;100845.78;5219398;28;20028;-73
2023/10/09 03:18:22;;;;;;;4.10;1.00;;;;;;;12.67;100.00;100841.34;5203618;28;20021;-72
2023/10/09 03:20:52;;;;;;;3.13;0.98;;;;;;;12.61;100.00;100825.88;5220142;28;20021;-72
2023/10/09 03:23:22;;;;;;;3.47;1.00;;;;;;;12.66;100.00;100813.41;5222764;28;20657;-73
2023/10/09 03:25:53;;;;;;;7.10;1.20;;;;;;;12.52;100.00;100810.50;5203801;28;20032;-72
2023/10/09 03:28:23;;;;;;;2.20;0.95;;;;;;;12.73;100.00;100804.41;5203987;28;20465;-72
2023/10/09 03:30:53;;;;;;;4.78;0.88;;;;;;;12.65;100.00;100795.97;5221142;28;20021;-72
2023/10/09 03:33:25;;;;;;;3.05;1.10;;;;;;;12.78;100.00;100793.72;5202165;28;20041;-72
2023/10/09 03:35:55;;;;;;;4.13;1.10;;;;;;;12.76;100.00;100788.53;5221384;28;20486;-74
2023/10/09 03:38:29;;;;;;;2.35;1.00;;;;;;;12.78;100.00;100770.97;5206867;28;20025;-71
2023/10/09 03:41:05;;;;;;;5.28;1.00;;;;;;;12.66;100.00;100765.38;5219231;28;20021;-74
2023/10/09 03:43:40;;;;;;;3.58;1.00;;;;;;;12.58;100.00;100763.06;5220716;28;20021;-72
2023/10/09 03:46:20;;;;;;;2.95;1.17;;;;;;;12.66;100.00;100771.44;5225058;28;20034;-72
2023/10/09 03:48:56;;;;;;;6.10;1.17;;;;;;;12.69;100.00;100770.47;5222692;28;20032;-73
2023/10/09 03:51:27;;;;;;;6.47;1.38;;;;;;;12.56;100.00;100764.03;5200899;28;20036;-72
2023/10/09 03:53:58;;;;;;;3.70;1.15;;;;;;;12.58;100.00;100767.44;5221036;28;20033;-74
2023/10/09 03:56:28;;;;;;;4.82;1.00;;;;;;;12.66;100.00;100760.97;5222648;28;20375;-72
2023/10/09 03:58:58;;;;;;;2.90;1.20;;;;;;;12.58;100.00;100752.56;5220909;28;20021;-72
2023/10/09 04:01:29;;;;;;;4.22;1.25;;;;;;;12.52;100.00;100752.84;5220646;28;20029;-72
2023/10/09 04:04:00;;;;;;;2.92;1.15;;;;;;;12.62;100.00;100746.28;5223707;28;20024;-72
2023/10/09 04:06:34;;;;;;;4.15;1.00;;;;;;;12.51;100.00;100748.50;5204833;28;20021;-72
2023/10/09 04:14:54;;;;;;;3.75;1.40;;;;;;;12.54;100.00;100737.88;5223493;28;20039;-74
2023/10/09 04:17:34;;;;;;;2.40;1.20;;;;;;;12.66;100.00;100728.66;5226385;28;20037;-71
2023/10/09 04:22:50;;;;;;;3.47;1.30;;;;;;;12.60;100.00;100735.00;5225779;28;20036;-72
2023/10/09 04:25:28;;;;;;;4.47;1.38;;;;;;;12.57;100.00;100737.75;5204078;28;20028;-72
2023/10/09 04:28:08;;;;;;;3.97;1.58;;;;;;;12.65;100.00;100734.81;5223242;28;20123;-72
2023/10/09 04:30:55;;;;;;;5.05;1.58;;;;;;;12.58;100.00;100736.84;5220605;28;20031;-72
2023/10/09 04:39:11;;;;;;;6.10;1.80;;;;;;;12.70;100.00;100728.47;5221599;28;20049;-72
2023/10/09 04:44:24;;;;;;;5.80;1.55;;;;;;;12.75;100.00;100725.63;5222933;28;20029;-72
2023/10/09 04:50:02;;;;;;;4.97;1.70;;;;;;;12.72;100.00;100741.50;5225056;28;20077;-73
2023/10/09 05:02:57;;;;;;;6.80;1.67;;;;;;;12.90;100.00;100738.97;5220890;28;20039;-72
2023/10/09 05:16:26;;;;;;;6.25;1.92;;;;;;;12.88;100.00;100731.16;5221426;28;20060;-73
2023/10/09 05:18:57;;;;;;;5.93;2.00;;;;;;;13.04;100.00;100729.63;5223177;28;20040;-73
2023/10/09 05:24:15;;;;;;;9.13;2.50;;;;;;;13.00;100.00;100714.94;5220941;28;20029;-73
2023/10/09 05:35:06;;;;;;;10.60;3.05;;;;;;;13.08;100.00;100751.34;5225199;28;20288;-73
2023/10/09 05:37:33;;;;;;;6.05;2.60;;;;;;;13.12;100.00;100760.78;5225272;28;20021;-72
2023/10/09 05:40:38;;;;;;;13.68;2.80;;;;;;;13.10;100.00;100760.00;5229630;28;20029;-73
2023/10/09 05:43:02;;;;;;;7.13;2.78;;;;;;;13.17;100.00;100745.69;5225715;28;20032;-73
2023/10/09 05:51:12;;;;;;;8.07;3.28;;;;;;;13.19;100.00;100764.84;5225391;28;20025;-74
2023/10/09 06:07:22;;;;;;;11.00;4.60;;;;;;;13.55;100.00;100771.13;5235173;28;20486;-73
2023/10/09 06:09:52;;;;;;;16.10;7.57;;;;;;;13.64;100.00;100761.06;5206788;28;20039;-73
2023/10/09 06:18:22;;;;;;;21.83;9.20;;;;;;;13.86;100.00;100751.28;5192631;28;20037;-72
2023/10/09 06:24:01;;;;;;;31.73;13.65;;;;;;;14.16;100.00;100756.91;5225358;28;20573;-73
2023/10/09 06:26:26;;;;;;;28.42;12.85;;;;;;;14.24;100.00;100763.50;5226987;28;20474;-72
2023/10/09 06:29:15;;;;;;;33.90;14.43;;;;;;;14.35;100.00;100768.25;5210730;28;20060;-73
2023/10/09 06:31:57;;;;;;;32.42;14.90;;;;;;;14.43;100.00;100759.06;5232400;28;20016;-74
2023/10/09 06:34:35;;;;;;;32.17;14.48;;;;;;;14.47;100.00;100765.91;5215897;28;20489;-73
2023/10/09 06:37:34;;;;;;;37.83;14.65;;;;;;;14.56;100.00;100768.06;5208265;28;20091;-73
2023/10/09 06:42:43;;;;;;;39.33;16.02;;;;;;;14.50;100.00;100776.28;5227113;28;20389;-73
2023/10/09 06:48:09;;;;;;;42.50;16.67;;;;;;;14.69;100.00;100781.47;5242091;22;20122;-76
2023/10/09 06:54:16;;;;;;;37.28;17.70;;;;;;;14.66;100.00;100785.13;5145664;28;20037;-75
2023/10/09 06:59:21;;;;;;;45.40;17.67;;;;;;;14.81;100.00;100792.28;5197910;28;20112;-76
2023/10/09 07:07:18;;;;;;;35.72;15.35;;;;;;;14.72;100.00;100766.41;5198265;28;20398;-76
2023/10/09 07:12:43;;;;;;;37.55;15.70;;;;;;;14.78;100.00;100781.88;5194801;28;20036;-76
2023/10/09 07:16:23;;;;;;;39.85;15.55;;;;;;;14.81;100.00;100784.38;5199255;28;20044;-76
2023/10/09 07:18:18;;;;;;;37.28;14.43;;;;;;;14.86;100.00;100796.34;5193541;28;20025;-76
2023/10/09 07:21:10;;;;;;;34.58;13.85;;;;;;;14.84;100.00;100787.69;5193979;28;20033;-74
2023/10/09 07:23:48;;;;;;;36.80;14.52;;;;;;;14.75;100.00;100782.03;5195099;28;20091;-77
2023/10/09 07:26:18;;;;;;;37.20;14.30;;;;;;;14.75;100.00;100775.94;5196502;28;20025;-77
2023/10/09 07:28:49;;;;;;;34.85;13.63;;;;;;;14.77;100.00;100779.34;5195482;28;20052;-76
2023/10/09 07:31:27;;;;;;;30.65;13.27;;;;;;;14.81;100.00;100780.88;5198117;28;20029;-77
2023/10/09 07:33:57;;;;;;;35.78;14.60;;;;;;;14.86;100.00;100785.84;5194046;28;20040;-76
2023/10/09 07:36:37;;;;;;;36.78;15.35;;;;;;;14.84;100.00;100774.53;5193322;28;20026;-72
2023/10/09 07:39:14;;;;;;;38.00;14.15;;;;;;;14.83;100.00;100783.38;5194244;28;20471;-77
2023/10/09 07:41:55;;;;;;;37.42;14.35;;;;;;;14.90;100.00;100778.66;5196182;28;20499;-75
2023/10/09 07:44:36;;;;;;;35.50;14.02;;;;;;;14.97;100.00;100778.25;5176378;28;20033;-76
2023/10/09 07:49:59;;;;;;;42.45;16.02;;;;;;;14.89;100.00;100785.72;5197657;28;20064;-77
2023/10/09 07:52:29;;;;;;;40.50;16.08;;;;;;;15.01;100.00;100779.81;5197072;28;20025;-76
2023/10/09 07:55:06;;;;;;;39.42;15.52;;;;;;;14.98;100.00;100782.59;5194958;28;20033;-77
2023/10/09 07:57:39;;;;;;;33.60;14.98;;;;;;;14.99;100.00;100775.56;5195833;28;20120;-75
2023/10/09 08:00:35;;;;;;;34.00;14.32;;;;;;;14.93;100.00;100800.41;5196588;28;20092;-76
2023/10/09 08:03:09;;;;;;;34.95;14.48;;;;;;;14.93;100.00;100787.25;5195878;28;20461;-76
2023/10/09 08:05:44;;;;;;;42.25;15.45;;;;;;;14.95;100.00;100772.22;5196556;28;20037;-76
2023/10/09 08:13:57;;;;;;;35.53;14.82;;;;;;;15.11;100.00;100770.53;5197127;28;20394;-73
2023/10/09 08:16:36;;;;;;;38.08;14.45;;;;;;;15.24;100.00;100755.81;5178802;28;20029;-74
2023/10/09 08:19:32;;;;;;;32.40;13.63;;;;;;;15.12;100.00;100761.69;5174071;28;20491;-74
2023/10/09 08:24:57;;;;;;;32.65;12.90;;;;;;;15.10;100.00;100757.44;5195795;28;20029;-76
2023/10/09 08:30:44;;;;;;;35.45;13.50;;;;;;;15.28;100.00;100736.28;5194991;28;20033;-77
2023/10/09 08:33:02;;;;;;;29.52;13.93;;;;;;;15.31;100.00;100730.03;5188160;28;20045;-76
2023/10/09 08:35:35;;;;;;;26.60;13.55;;;;;;;15.26;100.00;100727.63;5196988;28;20079;-74
2023/10/09 08:38:08;;;;;;;33.25;12.90;;;;;;;15.28;100.00;100731.03;5188901;28;20064;-77
2023/10/09 08:40:41;;;;;;;34.00;12.57;;;;;;;15.30;100.00;100718.66;5193750;28;20025;-77
2023/10/09 08:43:20;;;;;;;33.78;14.50;;;;;;;15.25;100.00;100720.66;5177103;28;20506;-76
2023/10/09 08:45:57;;;;;;;35.08;13.60;;;;;;;15.39;100.00;100728.69;5192795;28;20059;-76
2023/10/09 08:48:29;;;;;;;32.03;13.75;;;;;;;15.39;100.00;100719.94;5195642;28;20076;-75
2023/10/09 08:51:07;;;;;;;34.15;13.05;;;;;;;15.38;100.00;100713.81;5178581;28;20029;-75
2023/10/09 08:53:42;;;;;;;26.80;12.35;;;;;;;15.45;100.00;100711.72;5194034;28;20117;-74
2023/10/09 08:56:21;;;;;;;30.30;13.02;;;;;;;15.44;100.00;100721.41;5194628;28;20126;-75
2023/10/09 08:58:53;;;;;;;35.05;12.82;;;;;;;15.35;100.00;100718.41;5195028;28;20458;-75
2023/10/09 09:01:24;;;;;;;25.52;11.70;;;;;;;15.47;100.00;100718.59;5189395;28;20116;-73
2023/10/09 09:03:55;;;;;;;29.63;12.40;;;;;;;15.42;100.00;100723.28;5195332;28;20522;-76
2023/10/09 09:06:26;;;;;;;26.63;11.82;;;;;;;15.45;100.00;100728.38;5196009;28;20037;-74
2023/10/09 09:09:13;;;;;;;27.20;12.20;;;;;;;15.52;100.00;100729.75;5195767;28;20752;-76
2023/10/09 09:11:48;;;;;;;28.45;11.98;;;;;;;15.66;100.00;100735.13;5193358;28;20039;-74
2023/10/09 09:14:19;;;;;;;25.95;11.65;;;;;;;15.66;100.00;100734.28;5177559;28;20022;-77
2023/10/09 09:16:49;;;;;;;28.05;11.57;;;;;;;15.78;100.00;100734.47;5193180;28;20086;-75
2023/10/09 09:19:31;;;;;;;29.27;11.85;;;;;;;15.74;100.00;100745.25;5193783;28;20036;-77
2023/10/09 09:22:12;;;;;;;26.98;11.27;;;;;;;15.75;100.00;100741.69;5194480;28;20371;-76
2023/10/09 09:25:01;;;;;;;23.45;10.60;;;;;;;15.69;100.00;100745.50;5195462;28;20033;-77
2023/10/09 09:27:55;;;;;;;29.10;11.95;;;;;;;15.78;100.00;100741.53;5195680;28;20052;-77
2023/10/09 09:30:33;;;;;;;24.38;11.18;;;;;;;15.69;100.00;100736.75;5194535;28;20505;-75
2023/10/09 09:33:42;;;;;;;25.70;11.55;;;;;;;15.67;100.00;100744.75;5175545;28;20039;-77
2023/10/09 09:36:12;;;;;;;26.10;11.43;;;;;;;15.59;100.00;100746.09;5176115;28;20035;-75
2023/10/09 09:38:49;;;;;;;28.52;12.38;;;;;;;15.61;100.00;100739.81;5191061;28;21839;-76
2023/10/09 09:41:25;;;;;;;26.42;10.98;;;;;;;15.64;100.00;100734.38;5194867;28;20187;-77
2023/10/09 09:44:00;;;;;;;30.67;14.90;;;;;;;15.67;100.00;100749.19;5194374;28;20411;-76
2023/10/09 09:46:34;;;;;;;29.52;13.20;;;;;;;15.67;100.00;100752.66;5194716;28;20029;-76
2023/10/09 09:49:07;;;;;;;31.55;12.82;;;;;;;15.63;100.00;100748.47;5190338;28;20030;-76
2023/10/09 09:51:37;;;;;;;29.60;12.93;;;;;;;15.72;100.00;100749.78;5185075;28;20233;-76
2023/10/09 09:54:09;;;;;;;28.55;12.80;;;;;;;15.91;100.00;100756.59;5189905;28;20033;-76
2023/10/09 09:56:44;;;;;;;31.83;13.57;;;;;;;15.98;100.00;100755.34;5193385;28;20491;-76
2023/10/09 09:59:21;;;;;;;;;;;;;;;15.89;100.00;100766.38;5194286;28;20037;-76
2023/10/09 10:01:57;;;;;;;31.35;13.38;;;;;;;15.88;100.00;100762.03;5188992;28;19920;-76
2023/10/09 10:04:35;;;;;;;28.58;12.25;;;;;;;15.82;100.00;100749.19;5189674;28;20063;-76
2023/10/09 10:07:09;;;;;;;31.55;13.55;;;;;;;15.77;100.00;100751.22;5192666;28;20102;-76
2023/10/09 10:09:41;;;;;;;34.17;13.32;;;;;;;15.81;100.00;100749.25;5193932;28;20086;-75
2023/10/09 10:12:14;;;;;;;26.83;12.90;;;;;;;15.78;100.00;100742.38;5194634;28;20028;-76
2023/10/09 10:14:50;;;;;;;36.08;13.13;;;;;;;15.83;100.00;100739.47;5194520;28;20037;-75
2023/10/09 10:17:21;;;;;;;28.63;12.98;;;;;;;15.85;100.00;100738.47;5195228;28;20028;-77
2023/10/09 10:23:18;;;;;;;28.67;13.00;;;;;;;15.89;100.00;100747.91;5185231;28;20372;-76
2023/10/09 10:25:49;;;;;;;26.85;12.98;;;;;;;16.02;100.00;100748.94;5194967;28;20030;-76
2023/10/09 10:28:38;;;;;;;29.88;13.95;;;;;;;15.89;100.00;100761.09;5199222;28;20091;-76
2023/10/09 10:31:09;;;;;;;33.13;14.20;;;;;;;16.02;100.00;100751.59;5178468;28;20483;-76
2023/10/09 10:33:53;;;;;;;31.77;13.77;;;;;;;16.03;100.00;100750.66;5197095;28;20037;-77
2023/10/09 10:36:29;;;;;;;28.58;14.15;;;;;;;16.09;100.00;100750.34;5177675;28;20102;-74
2023/10/09 10:39:10;;;;;;;30.38;15.00;;;;;;;16.03;100.00;100752.44;5196371;28;20055;-77
2023/10/09 10:41:53;;;;;;;27.63;13.93;;;;;;;16.05;100.00;100746.13;5180556;28;20045;-77
2023/10/09 10:44:42;;;;;;;30.75;14.68;;;;;;;16.00;100.00;100748.19;5191886;28;20071;-77
2023/10/09 10:47:27;;;;;;;31.80;14.05;;;;;;;16.05;100.00;100745.31;5195392;28;20036;-77
2023/10/09 10:49:58;;;;;;;36.15;14.45;;;;;;;16.09;100.00;100746.81;5177832;28;20033;-76
2023/10/09 10:52:44;;;;;;;26.90;13.48;;;;;;;16.15;100.00;100751.75;5169160;28;20031;-77
2023/10/09 10:55:48;;;;;;;29.67;13.85;;;;;;;16.09;100.00;100745.06;5192535;28;20543;-77
2023/10/09 10:58:24;;;;;;;33.45;13.98;;;;;;;16.09;100.00;100747.69;5191744;28;20064;-77
2023/10/09 11:01:16;;;;;;;30.00;13.80;;;;;;;16.20;100.00;100740.03;5192244;28;20106;-76
2023/10/09 11:06:37;;;;;;;26.20;13.88;;;;;;;16.25;100.00;100737.97;5188219;28;20022;-73
2023/10/09 11:09:20;;;;;;;25.45;13.57;;;;;;;16.27;100.00;100740.53;5193079;28;20108;-76
2023/10/09 11:11:55;;;;;;;29.90;13.65;;;;;;;16.25;100.00;100737.13;5191363;28;20032;-75
2023/10/09 11:14:25;;;;;;;29.45;13.80;;;;;;;16.15;100.00;100734.16;5188565;28;20055;-75
2023/10/09 11:16:58;;;;;;;28.98;13.95;;;;;;;16.19;100.00;100735.69;5192901;28;20116;-76
2023/10/09 11:19:31;;;;;;;33.60;14.68;;;;;;;16.32;100.00;100734.06;5191488;28;20080;-77
2023/10/09 11:24:38;;;;;;;29.45;14.07;;;;;;;16.25;100.00;100732.69;5186643;28;20035;-76
2023/10/09 11:27:18;;;;;;;22.13;14.02;;;;;;;16.30;100.00;100735.94;5186589;28;21168;-76
2023/10/09 11:32:25;;;;;;;26.60;14.40;;;;;;;16.16;100.00;100737.63;5181255;28;20515;-77
2023/10/09 11:35:21;;;;;;;30.13;14.43;;;;;;;16.20;100.00;100733.91;5196158;28;20029;-77
2023/10/09 11:37:56;;;;;;;27.50;13.93;;;;;;;16.27;100.00;100738.75;5178323;28;20511;-75
2023/10/09 11:41:03;;;;;;;27.20;13.35;;;;;;;16.20;100.00;100732.09;5190773;28;20041;-76
2023/10/09 11:43:50;;;;;;;30.67;13.85;;;;;;;16.33;100.00;100722.56;5190226;28;20025;-74
2023/10/09 11:46:36;;;;;;;26.40;14.45;;;;;;;16.24;100.00;100735.44;5196124;28;20040;-76
2023/10/09 11:49:26;;;;;;;23.80;12.70;;;;;;;16.24;100.00;100735.44;5191329;28;20046;-76
2023/10/09 11:54:38;;;;;;;22.50;13.20;;;;;;;16.22;100.00;100742.59;5194864;28;20383;-76
2023/10/09 11:57:09;;;;;;;26.10;12.27;;;;;;;16.29;100.00;100739.53;5196801;28;20040;-77
2023/10/09 11:59:39;;;;;;;22.67;12.75;;;;;;;16.29;100.00;100728.09;5178670;28;20044;-76
2023/10/09 12:02:13;;;;;;;21.48;11.70;;;;;;;16.30;100.00;100730.66;5195870;28;20170;-76
2023/10/09 12:04:43;;;;;;;23.48;12.00;;;;;;;16.25;100.00;100731.84;5193077;28;20025;-77
2023/10/09 12:07:13;;;;;;;21.90;11.25;;;;;;;16.25;100.00;100732.69;5192739;28;20099;-76
2023/10/09 12:09:44;;;;;;;24.52;11.93;;;;;;;16.16;100.00;100743.78;5196444;28;20033;-76
2023/10/09 12:12:14;;;;;;;21.98;11.32;;;;;;;16.22;100.00;100735.50;5189440;28;20025;-76
2023/10/09 12:14:45;;;;;;;22.60;11.07;;;;;;;16.32;100.00;100736.69;5195881;28;20427;-76
2023/10/09 12:17:15;;;;;;;20.23;10.85;;;;;;;16.27;100.00;100738.75;5178458;28;20022;-76
2023/10/09 12:19:47;;;;;;;21.52;11.00;;;;;;;16.30;100.00;100745.63;5176439;28;20143;-76
2023/10/09 12:22:17;;;;;;;22.15;11.63;;;;;;;16.34;100.00;100753.28;5195084;28;20029;-76
2023/10/09 12:24:47;;;;;;;20.25;10.80;;;;;;;16.30;100.00;100743.84;5193365;28;20479;-77
2023/10/09 12:27:20;;;;;;;18.65;10.43;;;;;;;16.31;100.00;100748.19;5187618;28;20029;-77
2023/10/09 12:29:51;;;;;;;27.92;11.98;;;;;;;16.19;100.00;100748.88;5191247;28;20455;-73
2023/10/09 12:32:21;;;;;;;21.92;10.80;;;;;;;16.24;100.00;100746.81;5194139;28;20172;-76
2023/10/09 12:34:52;;;;;;;20.85;11.93;;;;;;;16.27;100.00;100751.94;5196344;28;20017;-76
2023/10/09 12:37:22;;;;;;;26.17;12.77;;;;;;;16.27;100.00;100749.31;5192655;28;20037;-76
2023/10/09 12:39:55;;;;;;;21.15;12.07;;;;;;;16.21;100.00;100751.44;5193590;28;20047;-76
2023/10/09 12:42:28;;;;;;;21.77;12.05;;;;;;;16.29;100.00;100747.44;5177335;28;20025;-76
2023/10/09 12:44:58;;;;;;;21.67;12.38;;;;;;;16.29;100.00;100743.94;5192569;28;20029;-76
2023/10/09 12:47:29;;;;;;;22.20;11.52;;;;;;;16.33;100.00;100750.72;5195501;28;20021;-76
2023/10/09 12:50:00;;;;;;;21.20;11.13;;;;;;;16.26;100.00;100744.97;5192393;28;20021;-77
2023/10/09 12:52:31;;;;;;;23.80;11.30;;;;;;;16.20;100.00;100750.56;5190258;28;20040;-76
2023/10/09 12:55:06;;;;;;;19.45;10.93;;;;;;;16.25;100.00;100743.25;5189473;28;20171;-76
2023/10/09 12:57:37;;;;;;;20.63;10.70;;;;;;;16.18;100.00;100744.53;5195474;28;20029;-77
2023/10/09 13:00:11;;;;;;;17.80;10.65;;;;;;;16.23;100.00;100745.13;5195392;28;20708;-74
2023/10/09 13:02:44;;;;;;;18.35;10.38;;;;;;;16.26;100.00;100744.09;5194119;28;20022;-76
2023/10/09 13:05:25;;;;;;;16.98;9.85;;;;;;;16.17;100.00;100750.75;5193323;28;20386;-77
2023/10/09 13:07:56;;;;;;;16.95;9.55;;;;;;;16.20;100.00;100737.38;5187999;28;20112;-77
2023/10/09 13:10:31;;;;;;;16.30;8.90;;;;;;;16.19;100.00;100742.75;5189093;28;20113;-75
2023/10/09 13:13:05;;;;;;;15.68;9.00;;;;;;;16.28;100.00;100737.81;5192590;28;20049;-74
2023/10/09 13:15:42;;;;;;;15.00;8.65;;;;;;;16.30;100.00;100740.34;5192890;28;20103;-76
2023/10/09 13:18:14;;;;;;;14.40;8.30;;;;;;;16.37;100.00;100741.75;5191201;28;20453;-76
2023/10/09 13:20:45;;;;;;;13.73;7.82;;;;;;;16.40;100.00;100742.41;5192724;28;20542;-77
2023/10/09 13:23:16;;;;;;;12.70;7.80;;;;;;;16.32;100.00;100744.63;5193384;28;20124;-77
2023/10/09 13:25:46;;;;;;;16.52;7.90;;;;;;;16.36;100.00;100742.69;5194706;28;20402;-77
2023/10/09 13:28:20;;;;;;;17.92;8.63;;;;;;;16.32;100.00;100733.19;5195037;28;20113;-77
2023/10/09 13:30:50;;;;;;;13.43;7.85;;;;;;;16.41;100.00;100746.75;5193169;28;20052;-74
2023/10/09 13:33:21;;;;;;;13.60;8.93;;;;;;;16.31;100.00;100742.91;5176484;28;20575;-77
2023/10/09 13:35:52;;;;;;;12.40;8.05;;;;;;;16.29;100.00;100742.16;5187397;28;20063;-76
2023/10/09 13:38:22;;;;;;;15.30;8.45;;;;;;;16.43;100.00;100747.53;5155103;28;20029;-77
2023/10/09 13:41:01;;;;;;;14.95;8.32;;;;;;;16.45;100.00;100745.66;5168869;28;20057;-73
2023/10/09 13:43:31;;;;;;;14.02;8.40;;;;;;;16.31;100.00;100748.19;5165348;28;20439;-76
2023/10/09 13:46:03;;;;;;;14.60;7.97;;;;;;;16.40;100.00;100749.50;5185879;28;20033;-77
2023/10/09 13:48:38;;;;;;;13.50;8.15;;;;;;;16.47;100.00;100749.06;5180419;28;20082;-76
2023/10/09 13:51:13;;;;;;;13.50;8.77;;;;;;;16.45;100.00;100740.38;5182561;28;20159;-77
2023/10/09 13:53:47;;;;;;;;;;;;;;;16.43;100.00;100742.28;5177212;28;20037;-77
2023/10/09 13:56:20;;;;;;;16.67;8.27;;;;;;;16.43;100.00;100742.28;5156869;28;19925;-77
2023/10/09 13:58:51;;;;;;;13.90;7.97;;;;;;;16.45;100.00;100748.31;5178007;28;20026;-76
2023/10/09 14:01:28;;;;;;;16.58;8.38;;;;;;;16.55;100.00;100740.72;5196360;28;20022;-77